CheckWX is a tool to help pilots better visualize weather data.  It is not intended as a substitute for an official pre-flight weather briefing.

14:30:35 UTC

KFWA TAF
Fort Wayne International Airport
Fort Wayne, Indiana, USA
KFWA 171136Z 1712/1812 06003KT P6SM SCT200 FM171600 16005KT P6SM SCT100

Nov-17@
12:00 UTC

Nov-17 @ 12:00 UTC

Nov-17@
16:00 UTC

Nov-17 @ 16:00 UTC

KFWA 171136Z 1712/1812 06003KT P6SM SCT200
Wind
  • 060° at 3 KTS
Cloud Levels
  • Scattered at 20,000' AGL

Nov-17@
16:00 UTC

Nov-17 @ 16:00 UTC

Nov-18@
12:00 UTC

Nov-18 @ 12:00 UTC

FM171600 16005KT P6SM SCT100

From

From Standard forecast or significant change

Wind
  • 160° at 5 KTS
Cloud Levels
  • Scattered at 10,000' AGL